Time;durP1;ratioP1;P1;durP2;ratioP2;P2;SDS_P1;SDS_P2;PMS_P1;PMS_P2;Temp;Humidity;BMP_temperature;BMP_pressure;BME280_temperature;BME280_humidity;BME280_pressure;Samples;Min_cycle;Max_cycle;Signal;HPM_P1;HPM_P2
2022/09/12 00:00:15;;;;;;;0.50;0.50;;;16.10;99.90;;;;;;5032538;28;20223;-72
2022/09/12 00:02:43;;;;;;;0.82;0.82;;;16.10;99.90;;;;;;5031095;28;20251;-71
2022/09/12 00:05:10;;;;;;;0.70;0.70;;;16.10;99.90;;;;;;5030135;28;20216;-72
2022/09/12 00:07:37;;;;;;;0.70;0.70;;;16.10;99.90;;;;;;5028580;28;20191;-70
2022/09/12 00:10:06;;;;;;;0.90;0.90;;;16.10;99.90;;;;;;5028942;28;20215;-73
2022/09/12 00:12:33;;;;;;;0.63;0.63;;;16.10;99.90;;;;;;5028172;28;20222;-71
2022/09/12 00:15:00;;;;;;;0.52;0.52;;;16.00;99.90;;;;;;5030661;28;20234;-71
2022/09/12 00:17:27;;;;;;;0.60;0.60;;;15.90;99.90;;;;;;5033779;28;20196;-70
2022/09/12 00:19:56;;;;;;;0.60;0.60;;;15.90;99.90;;;;;;5031929;28;20219;-70
2022/09/12 00:22:23;;;;;;;0.63;0.63;;;15.80;99.90;;;;;;5032681;28;20760;-71
2022/09/12 00:24:50;;;;;;;0.65;0.65;;;15.80;99.90;;;;;;5029594;28;20219;-71
2022/09/12 00:27:17;;;;;;;0.68;0.68;;;15.90;99.90;;;;;;5028731;28;20218;-71
2022/09/12 00:29:44;;;;;;;0.60;0.60;;;15.90;99.90;;;;;;5033667;28;20297;-71
2022/09/12 00:32:11;;;;;;;0.65;0.52;;;15.80;99.90;;;;;;5031368;28;20270;-71
2022/09/12 00:34:38;;;;;;;0.60;0.60;;;15.80;99.90;;;;;;5030082;28;20281;-71
2022/09/12 00:37:06;;;;;;;0.70;0.70;;;15.80;99.90;;;;;;5028945;28;20208;-71
2022/09/12 00:39:33;;;;;;;0.57;0.57;;;15.80;99.90;;;;;;5025760;28;20293;-70
2022/09/12 00:42:00;;;;;;;0.70;0.70;;;15.70;99.90;;;;;;5029724;28;20227;-71
2022/09/12 00:44:47;;;;;;;0.60;0.60;;;15.70;99.90;;;;;;5029751;28;20235;-71
2022/09/12 00:47:18;;;;;;;0.80;0.80;;;15.70;99.90;;;;;;5025866;28;20212;-70
2022/09/12 00:49:49;;;;;;;0.75;0.75;;;15.60;99.90;;;;;;5031031;28;20230;-71
2022/09/12 00:52:22;;;;;;;0.80;0.80;;;15.60;99.90;;;;;;5038557;28;20215;-71
2022/09/12 00:54:54;;;;;;;0.70;0.70;;;15.60;99.90;;;;;;5027574;28;20714;-71
2022/09/12 00:57:23;;;;;;;0.68;0.68;;;15.60;99.90;;;;;;5026717;28;20204;-71
2022/09/12 00:59:55;;;;;;;0.70;0.70;;;15.60;99.90;;;;;;5034458;28;20234;-71
2022/09/12 01:02:23;;;;;;;0.65;0.65;;;15.60;99.90;;;;;;5031091;28;20227;-70
2022/09/12 01:04:50;;;;;;;1.17;0.70;;;15.50;99.90;;;;;;5035354;28;20222;-71
2022/09/12 01:07:20;;;;;;;0.70;0.70;;;15.50;99.90;;;;;;5032955;28;20736;-71
2022/09/12 01:09:47;;;;;;;0.63;0.63;;;15.50;99.90;;;;;;5027035;28;20219;-71
2022/09/12 01:12:15;;;;;;;0.75;0.75;;;15.50;99.90;;;;;;5024108;28;20216;-71
2022/09/12 01:14:43;;;;;;;2.95;1.27;;;15.50;99.90;;;;;;5030578;28;20223;-71
2022/09/12 01:17:13;;;;;;;0.75;0.75;;;15.40;99.90;;;;;;5029199;28;20258;-71
2022/09/12 01:20:04;;;;;;;0.73;0.73;;;15.40;99.90;;;;;;5031060;28;20219;-71
2022/09/12 01:22:53;;;;;;;0.68;0.68;;;15.30;99.90;;;;;;5030202;28;20689;-70
2022/09/12 01:25:31;;;;;;;0.75;0.75;;;15.30;99.90;;;;;;5031999;28;20238;-70
2022/09/12 01:28:19;;;;;;;0.70;0.70;;;15.30;99.90;;;;;;5032909;28;20195;-71
2022/09/12 01:30:54;;;;;;;0.70;0.70;;;15.20;99.90;;;;;;5034024;28;20211;-71
2022/09/12 01:33:35;;;;;;;2.05;0.82;;;15.20;99.90;;;;;;5028722;28;20223;-69
2022/09/12 01:36:26;;;;;;;0.70;0.70;;;15.10;99.90;;;;;;5033931;28;20223;-71
2022/09/12 01:38:59;;;;;;;0.70;0.70;;;15.10;99.90;;;;;;5018605;28;20215;-70
2022/09/12 01:41:30;;;;;;;0.65;0.65;;;15.10;99.90;;;;;;5029259;28;20341;-71
2022/09/12 01:44:05;;;;;;;0.55;0.55;;;15.10;99.90;;;;;;5035775;28;20219;-71
2022/09/12 01:46:42;;;;;;;1.83;0.65;;;15.10;99.90;;;;;;5031769;28;20221;-70
2022/09/12 01:49:15;;;;;;;1.73;0.70;;;15.00;99.90;;;;;;5031355;28;20207;-71
2022/09/12 01:51:49;;;;;;;0.85;0.80;;;14.90;99.90;;;;;;5030434;28;20250;-71
2022/09/12 01:54:20;;;;;;;0.70;0.70;;;14.80;99.90;;;;;;5034342;28;20196;-70
2022/09/12 01:56:51;;;;;;;0.63;0.63;;;14.60;99.90;;;;;;5028665;28;20203;-70
2022/09/12 01:59:23;;;;;;;0.80;0.80;;;14.60;99.90;;;;;;5031544;28;20218;-70
2022/09/12 02:01:58;;;;;;;0.70;0.70;;;14.60;99.90;;;;;;5029006;28;20196;-71
2022/09/12 02:04:29;;;;;;;0.90;0.90;;;14.60;99.90;;;;;;5030227;28;20741;-71
2022/09/12 02:07:01;;;;;;;0.60;0.60;;;14.70;99.90;;;;;;5032651;28;20647;-71
2022/09/12 02:09:36;;;;;;;0.80;0.80;;;14.70;99.90;;;;;;5027552;28;20266;-71
2022/09/12 02:12:06;;;;;;;1.77;0.90;;;14.70;99.90;;;;;;5031951;28;20742;-70
2022/09/12 02:14:37;;;;;;;0.80;0.80;;;14.70;99.90;;;;;;5032941;28;20301;-70
2022/09/12 02:17:10;;;;;;;0.70;0.70;;;14.70;99.90;;;;;;5032184;28;20613;-71
2022/09/12 02:19:42;;;;;;;0.80;0.80;;;14.70;99.90;;;;;;5029339;28;21009;-72
2022/09/12 02:22:15;;;;;;;0.82;0.82;;;14.60;99.90;;;;;;5032831;28;20226;-70
2022/09/12 02:24:46;;;;;;;0.73;0.73;;;14.60;99.90;;;;;;5033249;28;20219;-71
2022/09/12 02:27:16;;;;;;;0.70;0.70;;;14.60;99.90;;;;;;5031748;28;20740;-71
2022/09/12 02:29:45;;;;;;;0.65;0.65;;;14.60;99.90;;;;;;5025914;28;20226;-71
2022/09/12 02:32:25;;;;;;;1.00;1.00;;;14.60;99.90;;;;;;5035739;28;20244;-71
2022/09/12 02:34:59;;;;;;;0.80;0.80;;;14.60;99.90;;;;;;5030256;28;20697;-70
2022/09/12 02:37:38;;;;;;;0.60;0.60;;;14.60;99.90;;;;;;5033062;28;20229;-70
2022/09/12 02:40:07;;;;;;;0.80;0.80;;;14.60;99.90;;;;;;5029031;28;20265;-70
2022/09/12 02:42:35;;;;;;;0.70;0.70;;;14.50;99.90;;;;;;5029811;28;20227;-71
2022/09/12 02:45:03;;;;;;;0.60;0.60;;;14.50;99.90;;;;;;5030206;28;20707;-70
2022/09/12 02:47:36;;;;;;;0.77;0.77;;;14.40;99.90;;;;;;5030713;28;20740;-71
2022/09/12 02:50:06;;;;;;;1.95;0.70;;;14.40;99.90;;;;;;5028226;28;20230;-71
2022/09/12 02:52:34;;;;;;;0.60;0.60;;;14.40;99.90;;;;;;5028467;28;20222;-70
2022/09/12 02:55:03;;;;;;;0.63;0.63;;;14.40;99.90;;;;;;5030232;28;20274;-70
2022/09/12 02:57:30;;;;;;;0.80;0.80;;;14.30;99.90;;;;;;5026787;28;20242;-71
2022/09/12 03:00:00;;;;;;;0.70;0.70;;;14.30;99.90;;;;;;5023864;28;20273;-71
2022/09/12 03:02:39;;;;;;;0.93;0.93;;;14.30;99.90;;;;;;5028859;28;20223;-72
2022/09/12 03:05:18;;;;;;;0.90;0.90;;;14.40;99.90;;;;;;5027529;28;20277;-71
2022/09/12 03:08:10;;;;;;;0.60;0.60;;;14.40;99.90;;;;;;5026343;28;20689;-71
2022/09/12 03:10:51;;;;;;;0.82;0.82;;;14.50;99.90;;;;;;5029437;28;20227;-72
2022/09/12 03:13:24;;;;;;;0.63;0.63;;;14.60;99.90;;;;;;5031733;28;20230;-71
2022/09/12 03:16:04;;;;;;;1.55;0.85;;;14.60;99.90;;;;;;5025302;28;20215;-72
2022/09/12 03:18:49;;;;;;;0.82;0.82;;;14.60;99.90;;;;;;5027484;28;20196;-72
2022/09/12 03:21:25;;;;;;;0.80;0.80;;;14.60;99.90;;;;;;5025496;28;20222;-71
2022/09/12 03:24:04;;;;;;;1.00;1.00;;;14.60;99.90;;;;;;5025888;28;20265;-72
2022/09/12 03:26:38;;;;;;;1.55;0.80;;;14.60;99.90;;;;;;5025146;28;20282;-72
2022/09/12 03:29:07;;;;;;;0.70;0.70;;;14.70;99.90;;;;;;5023948;28;20216;-72
2022/09/12 03:31:34;;;;;;;0.90;0.90;;;14.70;99.90;;;;;;5028884;28;20213;-72
2022/09/12 03:34:03;;;;;;;0.85;0.85;;;14.70;99.90;;;;;;5031653;28;20227;-71
2022/09/12 03:36:31;;;;;;;0.80;0.80;;;14.70;99.90;;;;;;5027082;28;20219;-72
2022/09/12 03:38:58;;;;;;;0.80;0.80;;;14.60;99.90;;;;;;5028784;28;20199;-72
2022/09/12 03:41:25;;;;;;;1.75;0.90;;;14.60;99.90;;;;;;5026345;28;20211;-72
2022/09/12 03:43:52;;;;;;;0.68;0.68;;;14.60;99.90;;;;;;5030659;28;20228;-71
2022/09/12 03:46:19;;;;;;;1.67;0.93;;;14.50;99.90;;;;;;5027623;28;20211;-72
2022/09/12 03:48:46;;;;;;;0.75;0.75;;;14.50;99.90;;;;;;5030641;28;20212;-71
2022/09/12 03:51:14;;;;;;;1.45;0.82;;;14.50;99.90;;;;;;5029933;28;20234;-72
2022/09/12 03:53:42;;;;;;;0.90;0.90;;;14.50;99.90;;;;;;5029518;28;20216;-72
2022/09/12 03:56:11;;;;;;;0.80;0.80;;;14.50;99.90;;;;;;5027764;28;20226;-71
2022/09/12 03:58:38;;;;;;;0.80;0.80;;;14.50;99.90;;;;;;5027857;28;20196;-72
2022/09/12 04:01:11;;;;;;;0.90;0.90;;;14.50;99.90;;;;;;5028683;28;20234;-72
2022/09/12 04:03:39;;;;;;;0.70;0.70;;;14.50;99.90;;;;;;5028652;28;20724;-71
2022/09/12 04:06:08;;;;;;;0.70;0.70;;;14.50;99.90;;;;;;5026347;28;20346;-72
2022/09/12 04:08:36;;;;;;;1.98;0.88;;;14.50;99.90;;;;;;5022061;28;20208;-72
2022/09/12 04:11:05;;;;;;;0.90;0.90;;;14.40;99.90;;;;;;5024998;28;20223;-71
2022/09/12 04:13:32;;;;;;;0.82;0.82;;;14.30;99.90;;;;;;5026290;28;20208;-72
2022/09/12 04:15:59;;;;;;;0.80;0.80;;;14.30;99.90;;;;;;5029587;28;20219;-72
2022/09/12 04:18:27;;;;;;;0.88;0.88;;;14.30;99.90;;;;;;5026263;28;20195;-71
2022/09/12 04:20:54;;;;;;;0.90;0.90;;;14.30;99.90;;;;;;5025648;28;20229;-71
2022/09/12 04:23:21;;;;;;;0.82;0.82;;;14.30;99.90;;;;;;5030042;28;20598;-72
2022/09/12 04:25:56;;;;;;;1.02;0.70;;;14.30;99.90;;;;;;5032480;28;20245;-71
2022/09/12 04:28:23;;;;;;;1.00;1.00;;;14.20;99.90;;;;;;5028858;28;20206;-71
2022/09/12 04:30:51;;;;;;;1.10;1.05;;;14.30;99.90;;;;;;5028947;28;20281;-71
2022/09/12 04:33:18;;;;;;;1.52;0.90;;;14.30;99.90;;;;;;5030497;28;20226;-71
2022/09/12 04:35:45;;;;;;;0.80;0.80;;;14.20;99.90;;;;;;5030594;28;20220;-72
2022/09/12 04:38:12;;;;;;;0.90;0.90;;;14.20;99.90;;;;;;5026911;28;20211;-71
2022/09/12 04:40:39;;;;;;;1.08;1.08;;;14.20;99.90;;;;;;5030395;28;20275;-72
2022/09/12 04:43:08;;;;;;;0.82;0.82;;;14.20;99.90;;;;;;5031245;28;20223;-72
2022/09/12 04:45:35;;;;;;;1.00;1.00;;;14.20;99.90;;;;;;5030446;28;20219;-71
2022/09/12 04:48:02;;;;;;;0.90;0.90;;;14.20;99.90;;;;;;5034023;28;20200;-72
2022/09/12 04:50:29;;;;;;;0.90;0.90;;;14.20;99.90;;;;;;5027984;28;20219;-71
2022/09/12 04:52:56;;;;;;;1.05;1.05;;;14.20;99.90;;;;;;5029263;28;20215;-71
2022/09/12 04:55:25;;;;;;;0.80;0.80;;;14.20;99.90;;;;;;5032110;28;20288;-72
2022/09/12 04:57:52;;;;;;;0.90;0.90;;;14.10;99.90;;;;;;5029410;28;20200;-72
2022/09/12 05:00:21;;;;;;;0.80;0.80;;;14.10;99.90;;;;;;5023486;28;20476;-72
2022/09/12 05:02:50;;;;;;;0.90;0.90;;;14.10;99.90;;;;;;5027556;28;20216;-73
2022/09/12 05:05:17;;;;;;;0.90;0.90;;;14.10;99.90;;;;;;5028097;28;20273;-72
2022/09/12 05:07:44;;;;;;;1.00;1.00;;;14.10;99.90;;;;;;5022333;28;20204;-72
2022/09/12 05:10:12;;;;;;;0.90;0.90;;;14.00;99.90;;;;;;5023433;28;20254;-72
2022/09/12 05:12:39;;;;;;;0.90;0.90;;;14.00;99.90;;;;;;5032334;28;20311;-72
2022/09/12 05:15:08;;;;;;;0.90;0.90;;;14.00;99.90;;;;;;5026327;28;20264;-72
2022/09/12 05:17:36;;;;;;;1.00;0.90;;;14.00;99.90;;;;;;5022455;28;20196;-72
2022/09/12 05:20:04;;;;;;;0.80;0.80;;;13.90;99.90;;;;;;5028436;28;20736;-72
2022/09/12 05:22:31;;;;;;;0.80;0.80;;;13.80;99.90;;;;;;5025865;28;20219;-72
2022/09/12 05:24:58;;;;;;;0.93;0.93;;;13.80;99.90;;;;;;5023953;28;20289;-72
2022/09/12 05:27:25;;;;;;;1.10;0.90;;;13.90;99.90;;;;;;5027854;28;20252;-73
2022/09/12 05:29:52;;;;;;;1.05;1.05;;;14.20;99.90;;;;;;5025961;28;20222;-73
2022/09/12 05:32:19;;;;;;;1.10;1.10;;;14.60;99.90;;;;;;5023490;28;20258;-74
2022/09/12 05:34:48;;;;;;;0.90;0.90;;;15.10;99.90;;;;;;5024926;28;20241;-72
2022/09/12 05:37:16;;;;;;;0.82;0.80;;;15.50;99.90;;;;;;5025049;28;20624;-72
2022/09/12 05:39:43;;;;;;;1.73;0.90;;;15.70;99.90;;;;;;5029887;28;20223;-72
2022/09/12 05:42:11;;;;;;;1.10;1.00;;;15.80;99.90;;;;;;5027000;28;20317;-72
2022/09/12 05:44:38;;;;;;;1.00;1.00;;;16.10;99.90;;;;;;5030171;28;20235;-72
2022/09/12 05:47:05;;;;;;;0.98;0.93;;;16.20;99.90;;;;;;5030081;28;20210;-72
2022/09/12 05:49:32;;;;;;;2.65;1.20;;;16.50;99.90;;;;;;5024155;28;20938;-73
2022/09/12 05:52:02;;;;;;;0.90;0.90;;;16.60;99.90;;;;;;5022587;28;20204;-71
2022/09/12 05:54:29;;;;;;;0.90;0.90;;;16.70;99.90;;;;;;5028252;28;20227;-72
2022/09/12 05:56:56;;;;;;;1.10;0.93;;;16.90;99.90;;;;;;5031520;28;20191;-72
2022/09/12 05:59:23;;;;;;;1.00;1.00;;;17.20;99.90;;;;;;5026854;28;20207;-74
2022/09/12 06:01:51;;;;;;;0.98;0.95;;;17.40;99.90;;;;;;5022852;28;20219;-71
2022/09/12 06:04:18;;;;;;;1.25;0.90;;;17.40;99.90;;;;;;5022401;28;20615;-73
2022/09/12 06:06:50;;;;;;;0.90;0.90;;;17.50;99.90;;;;;;5024650;28;20200;-72
2022/09/12 06:09:19;;;;;;;1.02;0.90;;;17.80;99.90;;;;;;5024500;28;20924;-72
2022/09/12 06:11:46;;;;;;;1.00;1.00;;;18.10;99.90;;;;;;5025953;28;20257;-73
2022/09/12 06:14:16;;;;;;;1.23;1.00;;;18.30;99.90;;;;;;5029548;28;20211;-72
2022/09/12 06:16:43;;;;;;;0.80;0.80;;;18.60;99.90;;;;;;5029000;28;20980;-71
2022/09/12 06:19:15;;;;;;;0.82;0.82;;;18.80;99.90;;;;;;5027971;28;20662;-72
2022/09/12 06:21:42;;;;;;;0.80;0.80;;;19.10;99.90;;;;;;5026388;28;20203;-73
2022/09/12 06:24:09;;;;;;;0.80;0.80;;;19.20;99.90;;;;;;5027649;28;20231;-72
2022/09/12 06:26:38;;;;;;;0.93;0.93;;;19.10;99.90;;;;;;5021026;28;20203;-72
2022/09/12 06:29:06;;;;;;;0.90;0.90;;;19.00;99.90;;;;;;5025130;28;20233;-72
2022/09/12 06:31:35;;;;;;;0.95;0.90;;;18.70;99.90;;;;;;5021668;28;20220;-72
2022/09/12 06:34:04;;;;;;;1.88;1.08;;;18.70;99.90;;;;;;5026878;28;20233;-72
2022/09/12 06:36:35;;;;;;;1.83;1.10;;;18.60;99.90;;;;;;5024500;28;20218;-72
2022/09/12 06:39:04;;;;;;;3.15;1.08;;;18.50;99.90;;;;;;5035832;28;20231;-72
2022/09/12 06:41:32;;;;;;;0.80;0.80;;;18.60;99.90;;;;;;5024240;28;20230;-73
2022/09/12 06:44:05;;;;;;;0.75;0.75;;;18.80;99.90;;;;;;5022461;28;20222;-72
2022/09/12 06:46:33;;;;;;;0.80;0.80;;;19.00;99.90;;;;;;5027018;28;20219;-73
2022/09/12 06:49:00;;;;;;;0.90;0.90;;;19.20;99.90;;;;;;5030839;28;20210;-73
2022/09/12 06:51:28;;;;;;;0.98;0.80;;;19.40;99.90;;;;;;5028311;28;20223;-71
2022/09/12 06:53:57;;;;;;;1.00;0.90;;;19.50;99.90;;;;;;5027524;28;20238;-73
2022/09/12 06:56:26;;;;;;;1.00;0.75;;;19.50;99.90;;;;;;5025618;28;20704;-72
2022/09/12 06:58:55;;;;;;;0.93;0.93;;;19.60;99.90;;;;;;5024827;28;20323;-72
2022/09/12 07:01:25;;;;;;;0.73;0.73;;;19.60;99.90;;;;;;5025265;28;20228;-73
2022/09/12 07:03:54;;;;;;;0.98;0.90;;;19.40;99.90;;;;;;5025547;28;20215;-71
2022/09/12 07:06:28;;;;;;;2.65;0.93;;;19.40;99.90;;;;;;5025914;28;20295;-73
2022/09/12 07:08:57;;;;;;;0.98;0.98;;;19.40;99.90;;;;;;5022809;28;20210;-72
2022/09/12 07:11:26;;;;;;;1.77;1.00;;;19.50;99.90;;;;;;5023943;28;20215;-73
2022/09/12 07:13:55;;;;;;;2.25;0.90;;;19.60;99.90;;;;;;5026176;28;20230;-71
2022/09/12 07:16:24;;;;;;;1.50;0.90;;;19.80;99.90;;;;;;5024939;28;20239;-72
2022/09/12 07:18:52;;;;;;;0.80;0.80;;;20.00;99.90;;;;;;5024081;28;20261;-71
2022/09/12 07:21:19;;;;;;;0.80;0.80;;;20.10;99.90;;;;;;5024797;28;20227;-73
2022/09/12 07:23:47;;;;;;;0.80;0.80;;;20.20;99.90;;;;;;5023331;28;20219;-74
2022/09/12 07:26:15;;;;;;;2.03;0.70;;;20.30;99.90;;;;;;5025017;28;20223;-72
2022/09/12 07:28:43;;;;;;;1.08;0.90;;;20.30;99.90;;;;;;5025158;28;20200;-73
2022/09/12 07:31:12;;;;;;;1.38;0.80;;;20.50;99.90;;;;;;5020984;28;20697;-73
2022/09/12 07:33:42;;;;;;;3.38;1.00;;;20.50;99.90;;;;;;5022636;28;20235;-72
2022/09/12 07:36:12;;;;;;;1.35;0.90;;;20.40;99.90;;;;;;5026520;28;20250;-72
2022/09/12 07:38:39;;;;;;;1.20;1.10;;;20.30;99.90;;;;;;5025927;28;20225;-74
2022/09/12 07:41:19;;;;;;;1.02;1.00;;;20.30;99.90;;;;;;5025568;28;20223;-73
2022/09/12 07:43:46;;;;;;;2.30;1.00;;;20.30;99.90;;;;;;5026417;28;20227;-71
2022/09/12 07:46:15;;;;;;;0.82;0.82;;;20.30;99.90;;;;;;5023142;28;20219;-72
2022/09/12 07:48:44;;;;;;;0.95;0.80;;;20.40;99.90;;;;;;5026861;28;20629;-72
2022/09/12 07:51:12;;;;;;;1.67;0.90;;;20.50;99.90;;;;;;5022426;28;20227;-71
2022/09/12 07:53:42;;;;;;;2.42;0.80;;;20.50;99.90;;;;;;5028353;28;20246;-71
2022/09/12 07:56:10;;;;;;;1.33;0.90;;;20.80;99.90;;;;;;5025479;28;20227;-74
2022/09/12 07:58:39;;;;;;;1.02;0.80;;;21.10;99.90;;;;;;5029812;28;20200;-72
2022/09/12 08:01:08;;;;;;;1.25;1.00;;;21.50;99.90;;;;;;5022006;28;20443;-72
2022/09/12 08:03:36;;;;;;;0.70;0.70;;;21.40;99.90;;;;;;5027875;28;20220;-72
2022/09/12 08:06:06;;;;;;;1.75;0.85;;;21.40;99.90;;;;;;5020740;28;20638;-72
2022/09/12 08:08:33;;;;;;;3.22;1.00;;;21.50;99.90;;;;;;5026654;28;20196;-72
2022/09/12 08:11:02;;;;;;;1.10;0.95;;;21.40;99.90;;;;;;5023202;28;20963;-72
2022/09/12 08:13:30;;;;;;;1.08;0.88;;;21.30;99.90;;;;;;5024460;28;20230;-72
2022/09/12 08:16:02;;;;;;;1.88;0.90;;;21.10;99.90;;;;;;5027121;28;20227;-72
2022/09/12 08:18:31;;;;;;;1.55;0.80;;;21.10;99.90;;;;;;5024444;28;20269;-72
2022/09/12 08:20:59;;;;;;;1.00;0.80;;;21.10;99.90;;;;;;5027213;28;20215;-71
2022/09/12 08:23:28;;;;;;;0.70;0.70;;;21.30;99.90;;;;;;5028889;28;20506;-72
2022/09/12 08:26:00;;;;;;;1.80;1.02;;;21.60;99.90;;;;;;5027617;28;20229;-72
2022/09/12 08:28:28;;;;;;;1.02;0.90;;;21.70;99.90;;;;;;5035001;28;20200;-73
2022/09/12 08:31:00;;;;;;;2.55;0.90;;;21.80;99.90;;;;;;5034113;28;20238;-73
2022/09/12 08:33:31;;;;;;;0.90;0.90;;;21.80;99.90;;;;;;5032750;28;20740;-72
2022/09/12 08:36:04;;;;;;;4.72;0.90;;;21.80;99.90;;;;;;5033407;28;20270;-72
2022/09/12 08:38:33;;;;;;;0.80;0.80;;;21.90;99.90;;;;;;5030150;28;20211;-72
2022/09/12 08:41:09;;;;;;;1.35;0.80;;;22.20;99.90;;;;;;5034012;28;20283;-73
2022/09/12 08:43:53;;;;;;;1.05;0.95;;;22.30;99.90;;;;;;5027668;28;20231;-72
2022/09/12 08:46:24;;;;;;;1.50;0.63;;;22.30;99.90;;;;;;5028939;28;20219;-72
2022/09/12 08:48:52;;;;;;;0.82;0.70;;;22.10;99.90;;;;;;5028309;28;20211;-72
2022/09/12 08:51:20;;;;;;;0.90;0.90;;;22.20;99.90;;;;;;5032567;28;20633;-72
2022/09/12 08:53:50;;;;;;;2.92;1.00;;;22.10;99.90;;;;;;5030756;28;20228;-72
2022/09/12 08:56:17;;;;;;;0.98;0.82;;;22.00;99.90;;;;;;5027139;28;20227;-72
2022/09/12 08:58:46;;;;;;;0.75;0.75;;;21.90;99.90;;;;;;5025848;28;20205;-73
2022/09/12 09:01:24;;;;;;;0.95;0.70;;;21.80;99.90;;;;;;5027686;28;20757;-72
2022/09/12 09:04:26;;;;;;;1.50;0.90;;;21.70;99.90;;;;;;5031674;28;20222;-73
2022/09/12 09:07:16;;;;;;;1.85;0.90;;;21.90;99.90;;;;;;5027278;28;20211;-74
2022/09/12 09:10:12;;;;;;;0.80;0.80;;;22.10;99.90;;;;;;5025838;28;20231;-72
2022/09/12 09:12:49;;;;;;;1.38;0.80;;;22.30;99.90;;;;;;5031109;28;20231;-73
2022/09/12 09:15:40;;;;;;;0.68;0.65;;;22.50;99.90;;;;;;5028798;28;20512;-71
2022/09/12 09:18:18;;;;;;;1.95;0.73;;;22.40;99.90;;;;;;5030448;28;20208;-72
2022/09/12 09:20:49;;;;;;;1.85;0.98;;;22.50;99.90;;;;;;5027488;28;20224;-72
2022/09/12 09:23:23;;;;;;;0.70;0.70;;;22.50;99.90;;;;;;5035247;28;20633;-73
2022/09/12 09:25:59;;;;;;;1.33;0.88;;;22.40;99.90;;;;;;5028660;28;20250;-75
2022/09/12 09:28:32;;;;;;;0.70;0.70;;;22.80;99.90;;;;;;5028792;28;20206;-72
2022/09/12 09:30:59;;;;;;;0.98;0.90;;;22.90;99.90;;;;;;5032292;28;20239;-72
2022/09/12 09:33:31;;;;;;;0.80;0.80;;;23.00;99.90;;;;;;5028573;28;20220;-72
2022/09/12 09:36:08;;;;;;;0.60;0.60;;;23.20;99.90;;;;;;5031501;28;20238;-72
2022/09/12 09:38:44;;;;;;;0.95;0.70;;;23.30;99.90;;;;;;5031624;28;20202;-72
2022/09/12 09:41:36;;;;;;;0.93;0.70;;;23.40;99.90;;;;;;5030961;28;20226;-72
2022/09/12 09:44:04;;;;;;;3.90;0.80;;;23.60;99.90;;;;;;5029836;28;20266;-72
2022/09/12 09:46:32;;;;;;;2.72;0.80;;;23.90;99.90;;;;;;5030059;28;20227;-72
2022/09/12 09:49:02;;;;;;;0.50;0.50;;;24.00;99.90;;;;;;5030617;28;20199;-74
2022/09/12 09:51:34;;;;;;;0.70;0.70;;;24.00;99.90;;;;;;5029565;28;20244;-71
2022/09/12 09:54:05;;;;;;;0.73;0.73;;;23.90;99.90;;;;;;5029739;28;20736;-72
2022/09/12 09:56:36;;;;;;;1.60;0.80;;;23.70;99.90;;;;;;5035297;28;20200;-71
2022/09/12 09:59:11;;;;;;;1.17;0.70;;;23.60;99.90;;;;;;5030235;28;20204;-71
2022/09/12 10:01:45;;;;;;;0.98;0.70;;;23.60;99.90;;;;;;5031695;28;21012;-72
2022/09/12 10:04:19;;;;;;;0.88;0.80;;;23.70;99.90;;;;;;5031323;28;20306;-72
2022/09/12 10:06:47;;;;;;;0.60;0.60;;;23.80;99.90;;;;;;5032512;28;20208;-72
2022/09/12 10:09:23;;;;;;;0.50;0.50;;;23.80;99.90;;;;;;5033253;28;20784;-72
2022/09/12 10:11:53;;;;;;;1.75;0.77;;;24.00;99.90;;;;;;5031446;28;20223;-73
2022/09/12 10:14:41;;;;;;;2.13;0.80;;;24.40;99.90;;;;;;5029324;28;20258;-73
2022/09/12 10:17:28;;;;;;;0.85;0.70;;;24.60;99.90;;;;;;5031511;28;20261;-73
2022/09/12 10:19:55;;;;;;;0.63;0.63;;;24.70;99.90;;;;;;5031567;28;20222;-72
2022/09/12 10:22:25;;;;;;;3.03;0.80;;;24.40;99.90;;;;;;5027119;28;20247;-71
2022/09/12 10:24:54;;;;;;;0.70;0.70;;;24.20;99.90;;;;;;5030755;28;20246;-72
2022/09/12 10:27:25;;;;;;;1.50;1.40;;;24.30;99.90;;;;;;5024896;28;20203;-73
2022/09/12 10:29:55;;;;;;;5.82;1.98;;;24.40;99.90;;;;;;5030278;28;20441;-73
2022/09/12 10:32:28;;;;;;;1.77;1.30;;;24.20;99.90;;;;;;5028699;28;20752;-72
2022/09/12 10:35:00;;;;;;;1.38;0.88;;;24.10;99.90;;;;;;5031862;28;20207;-71
2022/09/12 10:37:31;;;;;;;0.70;0.70;;;24.10;99.90;;;;;;5028598;28;20226;-73
2022/09/12 10:40:00;;;;;;;1.77;0.80;;;24.20;99.90;;;;;;5027660;28;20326;-74
2022/09/12 10:42:47;;;;;;;0.85;0.68;;;24.20;99.90;;;;;;5030434;28;20253;-73
2022/09/12 10:45:29;;;;;;;0.80;0.70;;;24.40;99.90;;;;;;5028398;28;20215;-73
2022/09/12 10:47:58;;;;;;;0.63;0.63;;;24.40;99.90;;;;;;5025581;28;20204;-73
2022/09/12 10:50:31;;;;;;;0.50;0.50;;;24.50;99.90;;;;;;5027344;28;20222;-73
2022/09/12 10:53:14;;;;;;;0.50;0.50;;;24.50;99.90;;;;;;5034951;28;20219;-73
2022/09/12 10:55:50;;;;;;;0.50;0.50;;;24.50;99.90;;;;;;5036387;28;20220;-73
2022/09/12 10:58:42;;;;;;;1.42;0.63;;;24.60;99.90;;;;;;5029897;28;20207;-72
2022/09/12 11:01:19;;;;;;;1.38;0.50;;;24.80;99.90;;;;;;5029682;28;20227;-72
2022/09/12 11:04:12;;;;;;;1.20;0.60;;;24.90;99.90;;;;;;5031397;28;20219;-73
2022/09/12 11:06:48;;;;;;;0.65;0.65;;;25.00;99.90;;;;;;5031068;28;20227;-73
2022/09/12 11:09:23;;;;;;;0.88;0.88;;;25.00;99.90;;;;;;5022205;28;20218;-73
2022/09/12 11:12:03;;;;;;;0.50;0.50;;;25.10;99.90;;;;;;5026374;28;20585;-72
2022/09/12 11:14:48;;;;;;;0.55;0.55;;;25.20;99.90;;;;;;5024325;28;20223;-73
2022/09/12 11:17:25;;;;;;;1.95;0.50;;;25.20;99.90;;;;;;5022569;28;20206;-72
2022/09/12 11:20:07;;;;;;;0.60;0.50;;;25.30;99.90;;;;;;5026537;28;20704;-73
2022/09/12 11:23:09;;;;;;;0.80;0.80;;;25.30;99.90;;;;;;5025948;28;20709;-73
2022/09/12 11:25:45;;;;;;;0.60;0.60;;;25.20;99.90;;;;;;5022784;28;20231;-74
2022/09/12 11:28:30;;;;;;;0.77;0.70;;;25.30;99.90;;;;;;5026458;28;20884;-74
2022/09/12 11:31:27;;;;;;;0.60;0.60;;;25.40;99.90;;;;;;5024394;28;20219;-73
2022/09/12 11:33:59;;;;;;;0.82;0.70;;;25.40;99.90;;;;;;5018014;28;20334;-75
2022/09/12 11:36:33;;;;;;;0.50;0.50;;;25.40;99.90;;;;;;5024013;28;20239;-73
2022/09/12 11:39:13;;;;;;;0.95;0.70;;;25.40;99.90;;;;;;5022697;28;20199;-73
2022/09/12 11:41:43;;;;;;;1.08;0.55;;;25.50;99.90;;;;;;5027321;28;20227;-74
2022/09/12 11:44:17;;;;;;;0.70;0.70;;;25.50;99.90;;;;;;5022127;28;20258;-73
2022/09/12 11:46:46;;;;;;;0.70;0.70;;;25.50;99.90;;;;;;5024398;28;20218;-73
2022/09/12 11:49:31;;;;;;;0.52;0.52;;;25.60;99.90;;;;;;5022845;28;20245;-73
2022/09/12 11:52:03;;;;;;;1.58;0.50;;;25.70;99.90;;;;;;5020134;28;20199;-73
2022/09/12 11:54:36;;;;;;;0.50;0.50;;;25.60;99.90;;;;;;5021570;28;20233;-73
2022/09/12 11:57:12;;;;;;;0.60;0.60;;;25.90;99.90;;;;;;5021241;28;20199;-73
2022/09/12 11:59:47;;;;;;;0.57;0.57;;;25.90;99.90;;;;;;5021488;28;20310;-73
2022/09/12 12:02:23;;;;;;;0.63;0.55;;;25.80;99.90;;;;;;5018996;28;20234;-74
2022/09/12 12:05:03;;;;;;;0.77;0.65;;;25.60;99.90;;;;;;5019960;28;20230;-74
2022/09/12 12:07:39;;;;;;;0.60;0.60;;;25.60;99.90;;;;;;5024475;28;20192;-74
2022/09/12 12:10:20;;;;;;;0.50;0.50;;;25.80;99.90;;;;;;5018682;28;20219;-75
2022/09/12 12:12:48;;;;;;;0.52;0.50;;;25.80;99.90;;;;;;5025668;28;20262;-73
2022/09/12 12:15:17;;;;;;;0.45;0.45;;;25.80;99.90;;;;;;5027261;28;20223;-75
2022/09/12 12:17:59;;;;;;;0.47;0.43;;;25.70;99.90;;;;;;5026421;28;20204;-73
2022/09/12 12:20:27;;;;;;;0.70;0.60;;;25.70;99.90;;;;;;5022189;28;20219;-74
2022/09/12 12:22:55;;;;;;;0.50;0.50;;;25.80;99.90;;;;;;5019908;28;20247;-74
2022/09/12 12:25:27;;;;;;;0.95;0.40;;;26.00;99.90;;;;;;5022358;28;20690;-73
2022/09/12 12:27:57;;;;;;;0.47;0.47;;;26.00;99.90;;;;;;5022019;28;20521;-73
2022/09/12 12:31:01;;;;;;;0.45;0.45;;;25.90;99.90;;;;;;5019880;28;20232;-74
2022/09/12 12:34:05;;;;;;;0.43;0.43;;;26.10;99.90;;;;;;5018385;28;20232;-74
2022/09/12 12:36:40;;;;;;;0.40;0.40;;;26.00;99.90;;;;;;5018612;28;20729;-74
2022/09/12 12:39:48;;;;;;;0.77;0.52;;;25.80;99.90;;;;;;5026395;28;20740;-73
2022/09/12 12:43:03;;;;;;;0.50;0.50;;;25.70;99.90;;;;;;5025442;28;20306;-74
2022/09/12 12:46:01;;;;;;;1.30;0.57;;;25.60;99.90;;;;;;5026322;28;20231;-74
2022/09/12 12:48:34;;;;;;;0.55;0.55;;;25.50;99.90;;;;;;5020486;28;20427;-73
2022/09/12 12:51:29;;;;;;;0.82;0.60;;;25.70;99.90;;;;;;5020406;28;20216;-73
2022/09/12 12:53:57;;;;;;;0.40;0.40;;;25.80;99.90;;;;;;5023687;28;20914;-74
2022/09/12 12:56:37;;;;;;;0.75;0.73;;;26.00;99.90;;;;;;5022710;28;20227;-74
2022/09/12 12:59:15;;;;;;;0.70;0.70;;;25.90;99.90;;;;;;5028225;28;20203;-74
2022/09/12 13:01:47;;;;;;;0.60;0.60;;;25.80;99.90;;;;;;5025706;28;20227;-74
2022/09/12 13:04:17;;;;;;;0.60;0.60;;;25.80;99.90;;;;;;5024476;28;20773;-73
2022/09/12 13:06:55;;;;;;;0.70;0.70;;;25.80;99.90;;;;;;5021968;28;20230;-73
2022/09/12 13:09:26;;;;;;;0.80;0.60;;;25.90;99.90;;;;;;5028200;28;20666;-72
2022/09/12 13:12:03;;;;;;;0.82;0.63;;;26.00;99.90;;;;;;5020074;28;20208;-73
2022/09/12 13:14:50;;;;;;;1.00;0.80;;;26.30;99.90;;;;;;5025517;28;20223;-74